Time;durP1;ratioP1;P1;durP2;ratioP2;P2;SDS_P1;SDS_P2;PMS_P1;PMS_P2;Temp;Humidity;BMP_temperature;BMP_pressure;BME280_temperature;BME280_humidity;BME280_pressure;Samples;Min_cycle;Max_cycle;Signal;HPM_P1;HPM_P2
2023/01/15 00:02:24;;;;;;;26.27;15.98;;;;;;;4.72;53.63;94152.34;4976585;28;20065;-86
2023/01/15 00:04:51;;;;;;;36.40;21.50;;;;;;;5.20;53.92;94223.91;4988459;28;20113;-85
2023/01/15 00:07:16;;;;;;;42.25;25.67;;;;;;;5.25;53.77;94221.25;4976136;28;20094;-85
2023/01/15 00:09:41;;;;;;;42.40;24.20;;;;;;;5.29;54.13;94243.38;4989691;28;20171;-85
2023/01/15 00:12:07;;;;;;;61.13;32.78;;;;;;;5.13;53.72;94216.28;4987158;28;20062;-85
2023/01/15 00:14:33;;;;;;;53.20;29.35;;;;;;;5.14;53.88;94217.84;4988669;28;20105;-85
2023/01/15 00:16:58;;;;;;;35.80;20.92;;;;;;;5.43;53.51;94249.69;4986121;28;20044;-86
2023/01/15 00:19:24;;;;;;;43.08;23.92;;;;;;;5.28;53.86;94244.47;4986516;28;20049;-85
2023/01/15 00:21:50;;;;;;;31.77;18.05;;;;;;;4.87;54.07;94205.03;4987560;28;20108;-85
2023/01/15 00:29:43;;;;;;;29.48;18.70;;;;;;;5.10;53.89;94219.44;4986025;28;20036;-85
2023/01/15 00:32:09;;;;;;;35.40;21.52;;;;;;;4.95;54.16;94224.75;4992249;28;20034;-86
2023/01/15 00:34:34;;;;;;;30.27;18.70;;;;;;;4.70;54.22;94175.53;4992771;28;20139;-84
2023/01/15 00:37:00;;;;;;;22.83;15.48;;;;;;;5.04;53.53;94210.75;4993620;28;20062;-85
2023/01/15 00:39:26;;;;;;;24.95;15.57;;;;;;;5.15;54.15;94243.16;4989123;28;20149;-86
2023/01/15 00:41:53;;;;;;;24.65;14.77;;;;;;;5.02;54.18;94234.00;4991042;28;20528;-85
2023/01/15 00:44:19;;;;;;;24.33;16.17;;;;;;;4.51;54.23;94158.72;4971522;28;20041;-86
2023/01/15 00:46:45;;;;;;;23.98;15.55;;;;;;;4.77;54.30;94218.22;4986869;28;20129;-85
2023/01/15 00:49:11;;;;;;;22.83;15.25;;;;;;;5.03;54.42;94246.13;4984583;28;20511;-85
2023/01/15 00:51:36;;;;;;;27.08;15.93;;;;;;;4.93;54.70;94234.81;4974413;28;20025;-84
2023/01/15 00:54:02;;;;;;;25.40;15.40;;;;;;;4.89;54.79;94234.56;4988264;28;20053;-85
2023/01/15 00:56:28;;;;;;;28.00;16.77;;;;;;;5.12;54.32;94236.59;4986088;28;20483;-84
2023/01/15 00:58:53;;;;;;;21.25;15.10;;;;;;;4.94;54.32;94239.03;4985251;28;20125;-85
2023/01/15 01:01:19;;;;;;;27.88;15.95;;;;;;;5.03;54.47;94240.84;4975382;28;20065;-86
2023/01/15 01:03:49;;;;;;;26.75;16.05;;;;;;;4.31;54.23;94117.41;4990478;28;20118;-86
2023/01/15 01:06:15;;;;;;;31.33;20.17;;;;;;;4.98;54.32;94214.50;4991016;28;21070;-85
2023/01/15 01:08:42;;;;;;;32.10;19.08;;;;;;;5.20;54.02;94240.50;4972968;28;20386;-85
2023/01/15 01:11:09;;;;;;;27.55;16.40;;;;;;;4.96;54.54;94245.59;4972479;28;20045;-85
2023/01/15 01:13:37;;;;;;;28.30;17.23;;;;;;;4.87;54.27;94202.38;4975661;28;20045;-85
2023/01/15 01:16:03;;;;;;;27.35;17.05;;;;;;;5.03;54.35;94240.06;4972858;28;20388;-85
2023/01/15 01:18:29;;;;;;;25.45;16.25;;;;;;;4.77;54.66;94215.59;4992291;28;20384;-85
2023/01/15 01:20:55;;;;;;;28.08;18.35;;;;;;;5.03;54.67;94238.22;4991780;28;20038;-85
2023/01/15 01:23:24;;;;;;;24.38;17.15;;;;;;;5.01;54.60;94231.59;4991697;28;20042;-86
2023/01/15 01:25:50;;;;;;;25.23;15.75;;;;;;;5.06;54.16;94219.22;4992106;28;20170;-85
2023/01/15 01:28:15;;;;;;;24.48;15.45;;;;;;;5.17;54.00;94229.72;4968784;28;20455;-85
2023/01/15 01:30:40;;;;;;;26.50;16.40;;;;;;;5.01;54.31;94216.59;4982106;28;20026;-85
2023/01/15 01:33:06;;;;;;;26.85;16.52;;;;;;;4.33;54.17;94115.31;4989256;28;20038;-86
2023/01/15 01:35:32;;;;;;;23.48;14.48;;;;;;;4.46;54.30;94121.84;4976364;28;20084;-86
2023/01/15 01:37:58;;;;;;;31.08;17.90;;;;;;;5.32;53.62;94219.13;4996365;28;20060;-85
2023/01/15 01:40:23;;;;;;;29.60;19.45;;;;;;;5.36;53.27;94212.25;4997017;28;20046;-85
2023/01/15 01:42:48;;;;;;;28.40;17.85;;;;;;;5.23;53.55;94218.09;5005140;28;20049;-85
2023/01/15 01:45:32;;;;;;;28.00;16.27;;;;;;;5.13;53.79;94214.47;4997734;28;21116;-86
2023/01/15 01:48:03;;;;;;;22.95;15.57;;;;;;;5.19;53.90;94219.72;4990042;28;20038;-85
2023/01/15 01:50:30;;;;;;;24.58;15.35;;;;;;;4.97;54.34;94218.19;4975012;28;20034;-85
2023/01/15 01:53:02;;;;;;;26.35;14.50;;;;;;;4.40;54.36;94126.38;4972396;28;20066;-85
2023/01/15 01:55:29;;;;;;;28.17;16.58;;;;;;;3.93;54.34;94079.28;4976033;28;20100;-84
2023/01/15 01:57:58;;;;;;;25.02;15.32;;;;;;;4.76;54.89;94223.75;4989248;28;20116;-86
2023/01/15 02:00:24;;;;;;;22.20;15.68;;;;;;;5.00;54.13;94222.13;4991385;28;20022;-85
2023/01/15 02:02:51;;;;;;;28.15;17.30;;;;;;;4.86;54.33;94208.72;4974238;28;20069;-86
2023/01/15 02:05:30;;;;;;;28.40;16.48;;;;;;;4.68;54.97;94198.75;4987656;28;20042;-85
2023/01/15 02:07:56;;;;;;;25.48;15.52;;;;;;;4.78;54.96;94211.91;4974132;28;20042;-85
2023/01/15 02:10:21;;;;;;;30.85;18.85;;;;;;;4.55;55.60;94223.00;4990316;28;20030;-85
2023/01/15 02:13:00;;;;;;;35.22;18.33;;;;;;;4.35;55.81;94186.16;4988797;28;20201;-85
2023/01/15 02:15:32;;;;;;;32.75;18.60;;;;;;;4.79;55.22;94217.97;4980693;28;20037;-85
2023/01/15 02:18:19;;;;;;;29.48;17.58;;;;;;;4.87;54.94;94217.41;4968860;28;20065;-85
2023/01/15 02:20:51;;;;;;;29.88;16.70;;;;;;;4.03;55.14;94089.78;4988461;28;20046;-85
2023/01/15 02:23:32;;;;;;;30.40;17.15;;;;;;;4.43;55.25;94156.63;4989170;28;20065;-85
2023/01/15 02:26:18;;;;;;;28.60;16.60;;;;;;;4.80;55.22;94208.97;4985834;28;20425;-85
2023/01/15 02:28:49;;;;;;;29.63;18.25;;;;;;;4.85;54.92;94212.41;4974297;28;20454;-85
2023/01/15 02:31:22;;;;;;;32.45;20.90;;;;;;;4.60;55.04;94168.44;4974829;28;20577;-86
2023/01/15 02:34:02;;;;;;;45.67;24.17;;;;;;;4.90;54.74;94209.75;4971557;28;20033;-86
2023/01/15 02:36:33;;;;;;;44.97;25.15;;;;;;;5.03;54.64;94208.41;4975078;28;20049;-85
2023/01/15 02:39:03;;;;;;;43.17;22.30;;;;;;;5.03;54.62;94198.66;4989351;28;20531;-85
2023/01/15 02:41:41;;;;;;;32.03;19.77;;;;;;;5.09;54.67;94202.84;4996142;28;20038;-85
2023/01/15 02:44:10;;;;;;;34.80;20.52;;;;;;;4.99;54.65;94197.59;4995327;28;20117;-86
2023/01/15 02:46:38;;;;;;;40.20;23.00;;;;;;;4.45;54.87;94125.56;4991675;28;20070;-84
2023/01/15 02:49:06;;;;;;;38.13;22.42;;;;;;;4.98;54.39;94190.78;4990072;28;20032;-86
2023/01/15 02:52:04;;;;;;;35.85;21.50;;;;;;;4.98;54.25;94174.97;4989570;28;20034;-85
2023/01/15 02:54:41;;;;;;;34.65;20.83;;;;;;;4.92;54.04;94162.84;4977574;28;20124;-85
2023/01/15 02:57:10;;;;;;;32.40;20.80;;;;;;;5.04;54.32;94192.31;4987226;28;20687;-85
2023/01/15 02:59:44;;;;;;;28.98;17.33;;;;;;;4.90;53.87;94167.59;4970698;28;20831;-86
2023/01/15 03:02:14;;;;;;;25.65;15.35;;;;;;;5.03;54.35;94190.75;4975127;28;20050;-85
2023/01/15 03:04:46;;;;;;;25.42;16.50;;;;;;;4.60;53.86;94115.75;4969282;28;20101;-85
2023/01/15 03:07:28;;;;;;;27.48;15.85;;;;;;;5.08;53.64;94193.38;4975605;28;20164;-84
2023/01/15 03:09:55;;;;;;;28.23;16.55;;;;;;;4.81;54.27;94190.28;4968968;28;20027;-85
2023/01/15 03:13:02;;;;;;;29.17;17.00;;;;;;;3.84;55.85;94129.00;4970175;28;20023;-85
2023/01/15 03:18:30;;;;;;;31.55;18.15;;;;;;;4.36;56.02;94190.34;4969684;28;20098;-85
2023/01/15 03:21:02;;;;;;;31.67;18.42;;;;;;;4.31;56.43;94196.41;4969423;28;20164;-85
2023/01/15 03:23:29;;;;;;;39.67;20.42;;;;;;;4.36;56.57;94203.50;4968926;28;20151;-85
2023/01/15 03:25:55;;;;;;;33.65;19.80;;;;;;;2.95;57.41;94047.91;4965478;28;20047;-85
2023/01/15 03:28:25;;;;;;;38.95;20.90;;;;;;;4.12;56.89;94161.91;4967559;28;20043;-85
2023/01/15 03:30:50;;;;;;;31.55;19.60;;;;;;;4.14;56.13;94119.53;4975578;28;20614;-85
2023/01/15 03:33:17;;;;;;;32.85;19.55;;;;;;;4.74;55.83;94191.63;4967806;28;20724;-85
2023/01/15 03:35:54;;;;;;;34.20;19.17;;;;;;;4.81;55.31;94207.94;4974057;28;20061;-86
2023/01/15 03:38:24;;;;;;;30.13;18.15;;;;;;;4.83;55.33;94206.63;4974959;28;20065;-85
2023/01/15 03:41:17;;;;;;;28.30;17.95;;;;;;;5.01;55.38;94200.78;4968221;28;20034;-85
2023/01/15 03:44:21;;;;;;;28.63;17.90;;;;;;;4.53;55.07;94132.91;4983408;28;20501;-86
2023/01/15 03:47:09;;;;;;;30.98;17.90;;;;;;;4.92;55.32;94178.66;4944409;28;20239;-85
2023/01/15 03:49:49;;;;;;;35.13;19.55;;;;;;;4.98;55.07;94203.94;4991018;28;20733;-85
2023/01/15 03:52:14;;;;;;;28.58;18.90;;;;;;;4.93;55.19;94200.53;4971192;28;20045;-85
2023/01/15 03:55:09;;;;;;;31.30;18.85;;;;;;;5.05;54.98;94211.56;4968405;28;20030;-86
2023/01/15 03:57:56;;;;;;;30.35;17.15;;;;;;;5.02;55.03;94202.34;4965151;28;20039;-86
2023/01/15 04:00:27;;;;;;;28.15;18.10;;;;;;;4.64;55.00;94163.47;4967610;28;20065;-85
2023/01/15 04:02:55;;;;;;;32.40;19.80;;;;;;;4.92;54.96;94199.75;4983962;28;20149;-85
2023/01/15 04:05:22;;;;;;;31.25;19.25;;;;;;;4.93;55.44;94203.97;4989028;28;20595;-85
2023/01/15 04:07:50;;;;;;;31.30;18.98;;;;;;;4.69;55.03;94171.34;4986137;28;20050;-86
2023/01/15 04:10:16;;;;;;;30.15;19.10;;;;;;;4.73;54.99;94159.22;4970155;28;20042;-85
2023/01/15 04:12:41;;;;;;;27.70;18.70;;;;;;;5.03;55.39;94193.41;4987194;28;20031;-86
2023/01/15 04:15:07;;;;;;;26.92;17.90;;;;;;;5.06;55.28;94206.03;4973191;28;20038;-86
2023/01/15 04:17:32;;;;;;;31.70;17.75;;;;;;;4.98;54.94;94177.59;4985873;28;20030;-85
2023/01/15 04:19:58;;;;;;;33.13;19.02;;;;;;;4.95;55.39;94191.28;4964618;28;20034;-86
2023/01/15 04:22:23;;;;;;;31.10;18.63;;;;;;;4.88;55.30;94185.53;4973138;28;20607;-84
2023/01/15 04:24:49;;;;;;;26.40;17.50;;;;;;;5.01;55.42;94200.78;4988034;28;20026;-86
2023/01/15 04:27:14;;;;;;;27.25;17.23;;;;;;;5.02;55.24;94207.63;4987153;28;20031;-85
2023/01/15 04:29:39;;;;;;;28.30;17.75;;;;;;;4.99;55.17;94196.84;4985648;28;20033;-86
2023/01/15 04:32:05;;;;;;;24.95;17.48;;;;;;;5.01;55.06;94202.63;4988002;28;20053;-85
2023/01/15 04:34:30;;;;;;;30.65;17.83;;;;;;;4.89;54.75;94181.84;4969948;28;20622;-85
2023/01/15 04:36:56;;;;;;;28.67;18.02;;;;;;;5.03;54.67;94209.22;4985264;28;20392;-85
2023/01/15 04:39:23;;;;;;;32.50;19.55;;;;;;;5.05;54.74;94203.66;4977186;28;20396;-85
2023/01/15 04:44:34;;;;;;;28.52;17.90;;;;;;;4.94;54.57;94210.78;4987408;28;20042;-85
2023/01/15 04:46:59;;;;;;;32.53;18.50;;;;;;;4.92;54.25;94207.66;4977448;28;20203;-85
2023/01/15 04:49:26;;;;;;;28.02;17.10;;;;;;;4.83;54.43;94206.63;4971747;28;20034;-86
2023/01/15 04:51:52;;;;;;;30.38;18.05;;;;;;;4.78;54.52;94205.84;4975285;28;20037;-85
2023/01/15 04:54:18;;;;;;;26.85;17.45;;;;;;;4.82;54.17;94207.69;4976030;28;20047;-85
2023/01/15 04:56:46;;;;;;;32.60;17.70;;;;;;;4.63;54.18;94182.94;4993171;28;20026;-86
2023/01/15 04:59:12;;;;;;;31.38;17.52;;;;;;;4.48;54.16;94172.44;4987663;28;20041;-85
2023/01/15 05:01:38;;;;;;;31.98;18.73;;;;;;;4.69;53.97;94213.50;4988360;28;20790;-85
2023/01/15 05:04:05;;;;;;;31.75;18.58;;;;;;;4.39;53.96;94180.09;4976304;28;20030;-85
2023/01/15 05:06:30;;;;;;;28.05;16.80;;;;;;;4.03;53.82;94131.09;4969067;28;20109;-85
2023/01/15 05:08:56;;;;;;;28.30;17.60;;;;;;;4.49;54.12;94216.94;4985153;28;20053;-85
2023/01/15 05:11:22;;;;;;;26.70;16.40;;;;;;;4.27;53.76;94175.06;4971437;28;20026;-85
2023/01/15 05:13:48;;;;;;;25.80;16.25;;;;;;;4.50;53.78;94215.88;4986970;28;20065;-85
2023/01/15 05:16:23;;;;;;;24.33;16.05;;;;;;;4.42;53.62;94216.41;4970315;28;20467;-86
2023/01/15 05:18:50;;;;;;;22.02;14.10;;;;;;;3.49;53.84;94088.72;4980445;28;20488;-86
2023/01/15 05:21:21;;;;;;;28.13;13.65;;;;;;;4.27;53.74;94213.75;4988670;28;20072;-85
2023/01/15 05:23:48;;;;;;;27.02;13.80;;;;;;;4.13;53.68;94200.34;4989208;28;20065;-85
2023/01/15 05:26:15;;;;;;;22.92;13.50;;;;;;;3.48;53.68;94102.97;4970192;28;20050;-85
2023/01/15 05:28:41;;;;;;;20.02;13.15;;;;;;;4.14;53.64;94215.09;4966374;28;20077;-85
2023/01/15 05:31:14;;;;;;;21.13;12.57;;;;;;;3.19;53.46;94069.25;4971813;28;20503;-85
2023/01/15 05:33:40;;;;;;;19.75;11.82;;;;;;;3.96;53.33;94189.28;4986286;28;20034;-85
2023/01/15 05:36:10;;;;;;;18.60;11.30;;;;;;;4.04;53.54;94211.66;4974912;28;20074;-85
2023/01/15 05:38:36;;;;;;;19.15;10.95;;;;;;;3.96;53.69;94214.81;4985559;28;20038;-85
2023/01/15 05:41:47;;;;;;;15.02;10.70;;;;;;;3.94;53.73;94216.91;4975374;28;20038;-85
2023/01/15 05:43:49;;;;;;;15.60;10.02;;;;;;;3.78;53.62;94200.28;4988893;28;20552;-86
2023/01/15 05:46:15;;;;;;;13.00;8.90;;;;;;;3.98;53.52;94213.47;4971423;28;20042;-86
2023/01/15 05:48:40;;;;;;;13.10;9.23;;;;;;;3.83;53.54;94200.31;4981460;28;20113;-85
2023/01/15 05:51:06;;;;;;;12.52;9.45;;;;;;;3.99;53.35;94225.59;4991173;28;20559;-84
2023/01/15 05:53:33;;;;;;;12.18;8.45;;;;;;;2.99;53.43;94068.44;4991545;28;20043;-85
2023/01/15 05:56:02;;;;;;;15.00;8.10;;;;;;;3.73;53.36;94187.94;4977794;28;20053;-84
2023/01/15 05:58:28;;;;;;;12.60;8.27;;;;;;;3.77;53.84;94217.16;4982569;28;20033;-86
2023/01/15 06:00:54;;;;;;;11.32;8.07;;;;;;;3.78;53.67;94229.22;4995070;28;20092;-86
2023/01/15 06:03:23;;;;;;;13.20;8.35;;;;;;;3.82;54.09;94230.28;4976689;28;20519;-86
2023/01/15 06:05:53;;;;;;;13.40;9.25;;;;;;;3.80;54.07;94232.41;4990846;28;20064;-86
2023/01/15 06:08:18;;;;;;;13.60;9.00;;;;;;;2.98;54.13;94109.69;4973946;28;20033;-86
2023/01/15 06:10:45;;;;;;;14.32;9.80;;;;;;;2.80;54.16;94082.03;4972897;28;20108;-86
2023/01/15 06:13:14;;;;;;;14.85;9.40;;;;;;;3.77;54.27;94230.31;4977862;28;20029;-85
2023/01/15 06:15:42;;;;;;;15.73;10.23;;;;;;;3.29;54.34;94163.09;4980377;28;20112;-85
2023/01/15 06:18:07;;;;;;;15.82;10.63;;;;;;;3.20;54.72;94147.06;4976566;28;20057;-86
2023/01/15 06:20:37;;;;;;;14.82;9.45;;;;;;;3.72;54.72;94225.81;4988402;28;20125;-86
2023/01/15 06:23:03;;;;;;;14.07;9.70;;;;;;;3.62;54.65;94209.22;4990748;28;20041;-86
2023/01/15 06:25:29;;;;;;;15.02;9.40;;;;;;;3.51;54.88;94191.84;4965595;28;20046;-85
2023/01/15 06:27:54;;;;;;;12.57;9.18;;;;;;;3.73;54.64;94218.69;4992670;28;20623;-85
2023/01/15 06:30:20;;;;;;;15.45;9.70;;;;;;;3.79;54.72;94226.34;4973195;28;20029;-86
2023/01/15 06:32:51;;;;;;;13.43;10.63;;;;;;;2.33;54.85;94002.56;4970617;28;20034;-86
2023/01/15 06:35:19;;;;;;;14.60;10.13;;;;;;;3.18;54.99;94132.59;4971591;28;20080;-86
2023/01/15 06:37:44;;;;;;;17.77;10.80;;;;;;;3.44;54.65;94150.00;4987857;28;20041;-85
2023/01/15 06:40:10;;;;;;;15.95;10.38;;;;;;;3.74;55.02;94205.28;4987390;28;20479;-85
2023/01/15 06:48:05;;;;;;;16.52;10.05;;;;;;;3.78;54.99;94202.94;4984744;28;20103;-86
2023/01/15 06:50:31;;;;;;;17.00;11.05;;;;;;;3.92;55.10;94225.03;4987631;28;20563;-85
2023/01/15 06:52:56;;;;;;;205.35;105.03;;;;;;;3.80;54.87;94196.38;4968878;28;20038;-86
2023/01/15 06:55:22;;;;;;;54.08;32.28;;;;;;;3.91;55.14;94212.97;4983917;28;20038;-85
2023/01/15 06:57:48;;;;;;;85.18;52.83;;;;;;;3.79;55.13;94188.72;4986053;28;20552;-85
2023/01/15 07:00:14;;;;;;;85.68;56.80;;;;;;;3.64;55.38;94186.06;4976525;28;20564;-86
2023/01/15 07:02:40;;;;;;;35.75;25.13;;;;;;;3.72;55.36;94188.22;4980610;28;20050;-85
2023/01/15 07:05:06;;;;;;;25.58;19.10;;;;;;;3.07;55.20;94071.34;4997766;28;20148;-87
2023/01/15 07:07:31;;;;;;;27.55;18.52;;;;;;;3.53;55.05;94139.75;4987815;28;20046;-86
2023/01/15 07:09:57;;;;;;;72.07;39.42;;;;;;;3.24;54.90;94087.66;4983176;28;20168;-86
2023/01/15 07:12:23;;;;;;;50.78;27.90;;;;;;;4.16;54.82;94222.72;4969840;28;20038;-86
2023/01/15 07:14:48;;;;;;;25.13;15.60;;;;;;;3.94;54.99;94194.00;4983954;28;20040;-85
2023/01/15 07:17:14;;;;;;;29.50;17.10;;;;;;;3.57;54.84;94138.19;4982503;28;20034;-85
2023/01/15 07:19:40;;;;;;;34.28;22.25;;;;;;;2.76;55.01;94023.19;4983862;28;20058;-86
2023/01/15 07:22:08;;;;;;;31.90;21.90;;;;;;;2.78;54.95;94004.53;4986140;28;20176;-86
2023/01/15 07:24:34;;;;;;;21.92;14.05;;;;;;;2.85;54.77;94007.69;4985873;28;20523;-88
2023/01/15 07:27:03;;;;;;;15.93;10.60;;;;;;;2.93;54.81;94020.34;4958462;28;20046;-86
2023/01/15 07:29:32;;;;;;;17.40;9.98;;;;;;;2.86;54.74;93996.16;4973783;28;20038;-86
2023/01/15 07:31:58;;;;;;;17.27;10.55;;;;;;;4.25;54.46;94206.13;4958768;28;20041;-86
2023/01/15 07:34:24;;;;;;;15.05;10.23;;;;;;;4.20;54.99;94206.13;4989932;28;20081;-86
2023/01/15 07:36:49;;;;;;;18.02;10.70;;;;;;;4.49;55.02;94239.88;4977267;28;20067;-86
2023/01/15 07:39:15;;;;;;;18.67;11.35;;;;;;;4.53;55.06;94240.91;4987086;28;20034;-86
2023/01/15 07:50:11;;;;;;;17.02;10.23;;;;;;;4.45;55.07;94223.81;4971336;28;20113;-87
2023/01/15 07:52:37;;;;;;;16.27;10.00;;;;;;;4.63;54.93;94240.91;4966438;28;20038;-87
2023/01/15 07:55:03;;;;;;;18.38;11.10;;;;;;;3.90;55.17;94119.28;4982679;28;20542;-86
2023/01/15 07:57:31;;;;;;;21.98;14.05;;;;;;;4.70;55.25;94230.88;4981128;28;20030;-86
2023/01/15 07:59:57;;;;;;;27.70;18.35;;;;;;;4.57;54.48;94197.97;4979766;28;20681;-86
2023/01/15 08:02:22;;;;;;;26.27;16.13;;;;;;;3.99;53.79;94099.28;4983574;28;20519;-85
2023/01/15 08:04:48;;;;;;;23.73;14.90;;;;;;;4.81;53.56;94202.66;4982614;28;20527;-85
2023/01/15 08:07:14;;;;;;;39.75;29.42;;;;;;;4.63;53.47;94204.03;4979609;28;20042;-85
2023/01/15 08:09:40;;;;;;;28.48;19.20;;;;;;;4.20;54.54;94208.78;4992314;28;20027;-85
2023/01/15 08:17:36;;;;;;;13.35;9.52;;;;;;;3.96;51.95;94127.97;4980029;28;20456;-86
2023/01/15 08:20:04;;;;;;;13.45;9.50;;;;;;;3.27;51.71;93992.53;4982277;28;20591;-85
2023/01/15 08:22:30;;;;;;;13.05;8.75;;;;;;;4.14;51.94;94159.81;4970103;28;20049;-85
2023/01/15 08:24:55;;;;;;;13.23;9.50;;;;;;;3.82;51.88;94104.00;4984677;28;20077;-86
2023/01/15 08:27:21;;;;;;;11.90;8.35;;;;;;;4.72;51.12;94236.69;4986729;28;20018;-86
2023/01/15 08:29:46;;;;;;;15.07;8.80;;;;;;;5.09;50.55;94238.97;4986224;28;20034;-86
2023/01/15 08:32:12;;;;;;;16.13;9.90;;;;;;;4.60;50.93;94168.44;4975150;28;20397;-85
2023/01/15 08:34:38;;;;;;;17.40;12.20;;;;;;;4.01;52.33;94201.66;4985119;28;20042;-85
2023/01/15 08:37:03;;;;;;;17.35;11.50;;;;;;;4.37;52.94;94245.38;4973278;28;20049;-85
2023/01/15 08:39:29;;;;;;;16.63;11.40;;;;;;;3.57;54.69;94243.41;4971141;28;20685;-85
2023/01/15 08:41:55;;;;;;;18.60;11.50;;;;;;;2.35;55.63;94092.34;4970649;28;20030;-84
2023/01/15 08:44:24;;;;;;;19.95;12.85;;;;;;;2.84;56.75;94218.91;4988837;28;20038;-86
2023/01/15 08:46:51;;;;;;;21.58;13.18;;;;;;;2.94;57.47;94245.22;4973711;28;20048;-84
2023/01/15 08:49:17;;;;;;;27.48;16.73;;;;;;;2.81;57.87;94240.41;4986092;28;20053;-85
2023/01/15 08:51:44;;;;;;;23.35;15.00;;;;;;;3.15;57.50;94246.91;4988111;28;20041;-85
2023/01/15 08:54:13;;;;;;;24.60;14.93;;;;;;;3.00;58.00;94246.03;4988734;28;20525;-84
2023/01/15 08:56:38;;;;;;;22.25;13.88;;;;;;;2.24;57.96;94104.63;4981170;28;20256;-85
2023/01/15 08:59:05;;;;;;;16.25;10.05;;;;;;;3.05;57.26;94252.13;4985120;28;20590;-85
2023/01/15 09:01:30;;;;;;;23.20;12.73;;;;;;;2.69;58.14;94243.25;4985664;28;20089;-84
2023/01/15 09:03:57;;;;;;;17.08;11.75;;;;;;;2.90;57.88;94244.16;4985601;28;20125;-85
2023/01/15 09:06:23;;;;;;;20.75;12.88;;;;;;;3.49;56.43;94220.22;4987440;28;20076;-85
2023/01/15 09:08:53;;;;;;;25.27;13.13;;;;;;;1.58;57.55;94046.44;4948718;28;20925;-85
2023/01/15 09:11:22;;;;;;;24.98;13.23;;;;;;;3.12;57.61;94244.81;4946027;28;20054;-85
2023/01/15 09:13:53;;;;;;;21.77;13.52;;;;;;;2.53;57.67;94157.53;4976416;28;20073;-84
2023/01/15 09:16:26;;;;;;;18.42;11.88;;;;;;;2.35;57.49;94111.47;4962098;28;20045;-84
2023/01/15 09:18:54;;;;;;;23.23;13.15;;;;;;;3.07;56.40;94192.22;4955058;28;20113;-85
2023/01/15 09:21:30;;;;;;;23.40;15.15;;;;;;;2.82;58.56;94232.28;4919022;28;20769;-85
2023/01/15 09:24:04;;;;;;;20.70;14.05;;;;;;;0.88;59.51;93990.84;4950107;28;20166;-85
2023/01/15 09:26:43;;;;;;;19.42;12.65;;;;;;;1.52;60.71;94144.41;4951800;28;20046;-84
2023/01/15 09:29:09;;;;;;;19.70;12.85;;;;;;;0.56;60.97;93967.22;4953374;28;20038;-86
2023/01/15 09:31:39;;;;;;;25.83;15.80;;;;;;;2.47;60.63;94229.44;4967442;28;20050;-87
2023/01/15 09:34:04;;;;;;;27.85;16.98;;;;;;;2.12;59.49;94132.88;4949951;28;20073;-86
2023/01/15 09:37:22;;;;;;;26.08;15.70;;;;;;;1.17;59.81;93955.47;4966742;28;20022;-88
2023/01/15 09:40:01;;;;;;;26.30;16.25;;;;;;;1.14;60.04;93963.81;4937288;28;20043;-87
2023/01/15 09:42:50;;;;;;;23.75;14.57;;;;;;;2.83;58.61;94139.31;4991683;28;20022;-91
2023/01/15 09:45:20;;;;;;;24.55;15.15;;;;;;;1.76;58.05;93963.19;4974373;28;20045;-88
2023/01/15 09:47:46;;;;;;;25.38;15.98;;;;;;;3.11;58.84;94198.53;4973035;28;20057;-88
2023/01/15 09:50:37;;;;;;;25.08;15.80;;;;;;;3.18;59.23;94196.47;4972144;28;20248;-83
2023/01/15 09:53:31;;;;;;;29.35;17.02;;;;;;;3.20;59.52;94186.47;4966471;28;20670;-87
2023/01/15 09:56:02;;;;;;;26.30;16.27;;;;;;;3.03;57.59;94091.31;4963765;28;20073;-86
2023/01/15 09:58:35;;;;;;;26.15;15.90;;;;;;;1.85;58.50;93938.06;4970717;28;20051;-85
2023/01/15 10:01:03;;;;;;;23.90;15.87;;;;;;;1.52;59.52;93939.19;4974504;28;20526;-90
2023/01/15 10:03:50;;;;;;;27.60;16.00;;;;;;;2.05;59.98;94041.28;4969845;28;20401;-88
2023/01/15 10:06:28;;;;;;;29.80;16.63;;;;;;;2.95;58.91;94081.28;4976826;28;20548;-87
2023/01/15 10:09:22;;;;;;;29.13;17.27;;;;;;;3.07;59.18;94118.63;4973447;28;20046;-87
2023/01/15 10:15:15;;;;;;;30.92;17.42;;;;;;;3.15;60.33;94147.03;4989883;28;20049;-85
2023/01/15 10:17:57;;;;;;;28.38;17.27;;;;;;;3.48;59.20;94139.78;4939949;28;20034;-85
2023/01/15 10:20:37;;;;;;;32.00;19.00;;;;;;;3.48;58.80;94137.16;4979336;28;20044;-87
2023/01/15 10:23:16;;;;;;;35.88;18.10;;;;;;;3.09;58.65;94048.19;4972806;28;20072;-85
2023/01/15 10:25:50;;;;;;;29.75;18.63;;;;;;;3.56;59.43;94123.47;4960105;28;20589;-85
2023/01/15 10:28:31;;;;;;;35.15;20.58;;;;;;;3.07;60.47;94115.22;4970706;28;20672;-85
2023/01/15 10:31:07;;;;;;;30.80;19.90;;;;;;;1.45;60.46;93863.41;4986333;28;20140;-85
2023/01/15 10:33:48;;;;;;;30.70;19.38;;;;;;;3.23;59.83;94111.59;4972979;28;20022;-85
2023/01/15 10:36:26;;;;;;;37.90;22.88;;;;;;;1.67;60.71;93890.22;4968756;28;20486;-84
2023/01/15 10:39:14;;;;;;;28.58;20.00;;;;;;;2.99;60.70;94094.72;4979140;28;20039;-83
2023/01/15 10:41:59;;;;;;;31.35;18.60;;;;;;;3.04;64.25;94100.75;4963841;28;20038;-84
2023/01/15 10:44:40;;;;;;;35.88;18.83;;;;;;;3.73;60.61;94098.47;4989927;28;20033;-84
2023/01/15 10:47:16;;;;;;;39.17;20.15;;;;;;;3.48;58.28;94050.38;4977913;28;20436;-85
2023/01/15 10:49:43;;;;;;;28.92;19.23;;;;;;;2.83;58.90;94012.44;4975061;28;20043;-85
2023/01/15 10:52:26;;;;;;;30.58;19.15;;;;;;;2.03;61.02;93961.25;4985694;28;20041;-84
2023/01/15 10:55:15;;;;;;;33.20;20.35;;;;;;;2.26;61.10;93979.16;4966376;28;20018;-85
2023/01/15 10:57:58;;;;;;;38.67;19.73;;;;;;;2.97;61.83;94076.56;4971241;28;20042;-84
2023/01/15 11:00:23;;;;;;;31.52;20.67;;;;;;;3.17;60.79;94066.09;4984219;28;20045;-83
2023/01/15 11:03:17;;;;;;;34.05;21.27;;;;;;;2.71;61.56;94030.25;4985396;28;20901;-83
2023/01/15 11:05:45;;;;;;;39.13;21.83;;;;;;;2.66;61.72;94019.72;4969203;28;20049;-84
2023/01/15 11:08:28;;;;;;;37.97;21.30;;;;;;;2.03;63.03;93962.03;4987406;28;20042;-84
2023/01/15 11:10:57;;;;;;;42.42;22.25;;;;;;;1.42;65.15;93920.78;4988248;28;20382;-87
2023/01/15 11:21:51;;;;;;;33.30;19.90;;;;;;;2.47;64.64;94045.66;4990152;28;20515;-84
2023/01/15 11:24:17;;;;;;;32.60;20.60;;;;;;;2.25;65.13;94048.47;4995194;28;20506;-84
2023/01/15 11:26:53;;;;;;;33.75;19.65;;;;;;;1.41;64.58;93838.75;4983049;28;20331;-85
2023/01/15 11:29:38;;;;;;;32.17;17.42;;;;;;;2.88;62.57;94033.47;4968002;28;20048;-84
2023/01/15 11:32:16;;;;;;;37.93;19.13;;;;;;;2.87;62.82;94026.63;4970118;28;20065;-85
2023/01/15 11:34:58;;;;;;;27.48;17.25;;;;;;;1.04;63.13;93775.16;4966367;28;20782;-84
2023/01/15 11:37:24;;;;;;;27.52;16.50;;;;;;;1.12;63.63;93793.03;4968218;28;20049;-84
2023/01/15 11:40:03;;;;;;;30.83;18.40;;;;;;;2.32;64.75;94011.47;4982471;28;20034;-84
2023/01/15 11:50:51;;;;;;;28.63;18.30;;;;;;;2.58;64.33;94007.09;4982752;28;20056;-84
2023/01/15 11:53:26;;;;;;;29.80;18.40;;;;;;;2.20;65.50;93972.34;4982634;28;21598;-84
2023/01/15 11:56:03;;;;;;;28.40;15.70;;;;;;;2.59;68.16;94003.44;4970705;28;20031;-86
2023/01/15 11:58:43;;;;;;;31.27;17.23;;;;;;;1.39;65.51;93767.47;4973393;28;20038;-87
2023/01/15 12:01:15;;;;;;;26.60;16.27;;;;;;;2.11;64.30;93884.66;4985903;28;20091;-87
2023/01/15 12:03:41;;;;;;;24.80;16.23;;;;;;;3.00;62.78;93964.88;4984480;28;20042;-85
2023/01/15 12:06:11;;;;;;;25.23;16.27;;;;;;;3.02;61.38;93926.00;4971016;28;20048;-86
2023/01/15 12:08:37;;;;;;;28.88;16.45;;;;;;;3.29;61.65;93997.50;4976489;28;20053;-86
2023/01/15 12:11:21;;;;;;;26.05;17.75;;;;;;;3.35;61.81;93991.97;4984830;28;20126;-85
2023/01/15 12:13:52;;;;;;;24.80;14.43;;;;;;;3.26;60.94;93984.88;4985045;28;20038;-85
2023/01/15 12:16:36;;;;;;;31.00;16.50;;;;;;;3.00;62.66;93989.34;4964543;28;20046;-84
2023/01/15 12:19:07;;;;;;;22.38;14.55;;;;;;;3.22;61.96;93982.00;4975447;28;20398;-84
2023/01/15 12:21:45;;;;;;;24.48;14.93;;;;;;;3.47;60.50;93983.03;4985099;28;20029;-85
2023/01/15 12:24:34;;;;;;;25.33;15.25;;;;;;;2.91;62.72;93988.28;4966999;28;20046;-84
2023/01/15 12:27:09;;;;;;;28.80;15.18;;;;;;;3.27;62.19;93982.00;4936792;28;20033;-84
2023/01/15 12:29:50;;;;;;;24.50;13.52;;;;;;;2.57;62.45;93882.13;4985144;28;20044;-84
2023/01/15 12:32:22;;;;;;;25.65;13.45;;;;;;;3.12;61.34;93890.03;4977030;28;20116;-84
2023/01/15 12:34:51;;;;;;;21.08;13.07;;;;;;;3.16;62.13;93980.41;4984782;28;20039;-84